createdAt,value
2023-03-01T00:03:19.193Z,25.00
2023-03-01T00:04:19.511Z,25.00
2023-03-01T00:05:20.100Z,25.00
2023-03-01T00:06:19.041Z,25.00
2023-03-01T00:07:20.543Z,25.00
2023-03-01T00:08:21.368Z,25.00
2023-03-01T00:09:20.539Z,34.64
2023-03-01T00:19:59.083Z,25.00
2023-03-01T00:20:58.975Z,25.00
2023-03-01T00:21:58.674Z,25.00
2023-03-01T00:22:58.646Z,25.00
2023-03-01T00:23:58.622Z,25.00
2023-03-01T00:24:58.613Z,38.83
2023-03-01T00:25:58.711Z,50.37
2023-03-01T00:26:58.597Z,60.52
2023-03-01T00:27:58.610Z,33.36
2023-03-01T00:28:58.712Z,28.52
2023-03-01T00:29:58.540Z,35.28
2023-03-01T00:30:58.673Z,51.00
2023-03-01T00:31:58.691Z,48.14
2023-03-01T00:32:58.525Z,48.25
2023-03-01T00:33:58.633Z,47.27
2023-03-01T00:34:58.557Z,25.00
2023-03-01T00:35:58.583Z,25.00
2023-03-01T00:36:58.608Z,32.51
2023-03-01T01:44:21.541Z,25.00
2023-03-01T01:46:21.227Z,25.00
2023-03-01T01:47:21.323Z,25.00
2023-03-01T01:48:21.106Z,25.00
2023-03-01T01:49:21.098Z,25.00
2023-03-01T01:57:23.468Z,25.00
2023-03-01T02:09:23.275Z,25.00
2023-03-01T02:10:23.537Z,25.00
2023-03-01T02:11:23.353Z,25.00
2023-03-01T02:12:23.138Z,25.00
2023-03-01T02:13:23.122Z,25.00
2023-03-01T02:14:23.153Z,46.17
2023-03-01T02:15:23.116Z,63.40
2023-03-01T02:16:23.270Z,58.90
2023-03-01T02:17:23.096Z,82.06
2023-03-01T02:23:19.619Z,25.00
2023-03-01T02:24:23.010Z,25.00
2023-03-01T02:25:23.174Z,25.00
2023-03-01T02:26:22.883Z,25.00
2023-03-01T02:27:22.970Z,25.00
2023-03-01T02:28:22.865Z,25.00
2023-03-01T02:45:57.264Z,25.00
2023-03-01T02:48:16.597Z,25.00
2023-03-01T02:49:16.871Z,25.00
2023-03-01T02:53:57.669Z,25.00
2023-03-01T02:54:58.610Z,25.00
2023-03-01T02:57:17.114Z,25.00
2023-03-01T02:58:16.906Z,25.00
2023-03-01T02:59:17.052Z,25.00
2023-03-01T03:00:16.764Z,25.00
2023-03-01T03:01:16.898Z,25.00
2023-03-01T03:02:16.781Z,25.85
2023-03-01T03:03:16.777Z,39.37
2023-03-01T03:04:16.765Z,80.55
2023-03-01T03:05:16.786Z,108.93
2023-03-01T03:06:16.965Z,136.97
2023-03-01T03:07:16.774Z,159.74
2023-03-01T03:08:16.734Z,187.17
2023-03-01T03:09:16.910Z,210.00
2023-03-01T03:10:16.695Z,207.98
2023-03-01T03:11:16.748Z,183.31
2023-03-01T03:12:16.694Z,176.32
2023-03-01T03:13:16.747Z,199.11
2023-03-01T03:14:16.731Z,218.29
2023-03-01T03:15:16.729Z,215.20
2023-03-01T03:16:16.717Z,206.46
2023-03-01T03:17:16.674Z,223.39
2023-03-01T03:18:16.671Z,230.67
2023-03-01T03:19:16.647Z,162.69
2023-03-01T03:20:16.679Z,139.10
2023-03-01T03:23:59.020Z,25.00
2023-03-01T03:24:57.020Z,25.00
2023-03-01T03:25:56.637Z,25.00
2023-03-01T03:26:56.612Z,25.00
2023-03-01T03:27:56.589Z,25.00
2023-03-01T03:28:56.649Z,25.00
2023-03-01T03:29:56.556Z,48.41
2023-03-01T03:30:56.562Z,52.62
2023-03-01T03:31:56.645Z,57.92
2023-03-01T03:32:56.575Z,62.29
2023-03-01T03:33:56.527Z,74.39
2023-03-01T03:34:56.536Z,82.45
2023-03-01T04:45:30.146Z,25.00
2023-03-01T04:46:30.360Z,25.00
2023-03-01T04:47:30.261Z,25.00
2023-03-01T04:48:29.927Z,25.00
2023-03-01T04:49:29.887Z,25.00
2023-03-01T04:50:29.870Z,25.00
2023-03-01T04:51:29.929Z,25.00
2023-03-01T04:52:29.872Z,39.81
2023-03-01T04:53:30.064Z,27.10
2023-03-01T04:54:29.907Z,23.68
2023-03-01T04:55:29.841Z,24.93
2023-03-01T04:56:30.098Z,37.82
2023-03-01T04:57:29.813Z,35.84
2023-03-01T04:58:29.845Z,44.96
2023-03-01T04:59:29.827Z,47.44
2023-03-01T05:00:29.827Z,61.46
2023-03-01T05:01:29.833Z,75.89
2023-03-01T05:02:29.873Z,71.52
2023-03-01T05:03:29.803Z,81.74
2023-03-01T05:04:29.863Z,79.89
2023-03-01T05:05:29.822Z,93.17
2023-03-01T05:06:30.126Z,79.37
2023-03-01T05:07:29.827Z,85.57
2023-03-01T05:08:29.867Z,55.94
2023-03-01T05:09:29.912Z,13.55
2023-03-01T05:10:30.003Z,25.00
2023-03-01T05:11:30.011Z,37.64
2023-03-01T05:12:30.030Z,73.77
2023-03-01T05:13:30.043Z,125.26
2023-03-01T05:14:30.103Z,132.84
2023-03-01T05:15:30.198Z,148.86
2023-03-01T05:16:30.426Z,177.50
2023-03-01T05:17:30.170Z,197.86
2023-03-01T05:18:30.217Z,184.36
2023-03-01T05:19:30.224Z,131.89
2023-03-01T05:20:30.190Z,115.77
2023-03-01T05:21:30.236Z,111.43
2023-03-01T05:22:30.312Z,73.02
2023-03-01T05:23:30.308Z,30.52
2023-03-01T05:24:30.336Z,27.18
2023-03-01T05:25:30.368Z,26.47
2023-03-01T05:26:30.366Z,29.12
2023-03-01T05:27:30.447Z,31.33
2023-03-01T05:28:30.426Z,33.41
2023-03-01T05:29:30.479Z,6.87
2023-03-01T05:30:30.480Z,43.62
2023-03-01T05:31:30.584Z,99.19
2023-03-01T05:33:30.630Z,0.00
2023-03-01T06:47:30.691Z,25.00
2023-03-01T06:48:31.003Z,25.00
2023-03-01T06:49:30.565Z,25.00
2023-03-01T06:50:30.571Z,25.00
2023-03-01T06:51:31.434Z,25.00
2023-03-01T06:52:30.413Z,12.31
2023-03-01T07:03:50.174Z,115.08
2023-03-01T07:53:15.406Z,25.00
2023-03-01T07:54:15.548Z,25.00
2023-03-01T07:55:15.091Z,25.00
2023-03-01T07:56:30.482Z,25.00
2023-03-01T07:57:14.915Z,25.00
2023-03-01T07:58:15.341Z,25.00
2023-03-01T07:59:14.882Z,25.00
2023-03-01T08:00:14.926Z,25.00
2023-03-01T08:01:15.610Z,25.00
2023-03-01T08:02:14.855Z,92.92
2023-03-01T08:03:14.861Z,255.76
2023-03-01T08:04:14.834Z,262.06
2023-03-01T08:05:14.813Z,286.96
2023-03-01T08:06:14.759Z,318.69
2023-03-01T08:07:14.781Z,356.34
2023-03-01T08:08:14.831Z,298.66
2023-03-01T08:09:14.740Z,189.15
2023-03-01T08:10:14.769Z,174.57
2023-03-01T08:11:14.761Z,140.60
2023-03-01T08:12:14.715Z,44.99
2023-03-01T08:13:15.196Z,65.10
2023-03-01T08:14:14.802Z,140.08
2023-03-01T08:15:14.724Z,176.66
2023-03-01T08:16:14.793Z,149.48
2023-03-01T08:17:14.760Z,16.37
2023-03-01T08:18:14.830Z,11.05
2023-03-01T08:19:14.798Z,0.00
2023-03-01T08:20:14.820Z,0.00
2023-03-01T08:21:14.830Z,0.00
2023-03-01T08:22:15.028Z,0.00
2023-03-01T08:24:15.012Z,0.00
2023-03-01T08:25:14.951Z,0.00
2023-03-01T08:26:14.955Z,0.00
2023-03-01T08:27:14.999Z,37.44
2023-03-01T08:29:15.137Z,108.99
2023-03-01T08:30:15.160Z,113.63
2023-03-01T08:31:15.329Z,110.70
2023-03-01T08:32:15.642Z,56.34
2023-03-01T08:34:15.320Z,0.00
2023-03-01T08:35:15.700Z,0.00
2023-03-01T08:36:15.448Z,0.00
2023-03-01T08:37:15.438Z,2.74
2023-03-01T08:58:31.187Z,110.21
2023-03-01T09:04:16.172Z,48.12
2023-03-01T09:29:29.492Z,25.00
2023-03-01T09:42:55.045Z,25.00
2023-03-01T09:43:50.844Z,25.00
2023-03-01T09:47:31.091Z,25.00
2023-03-01T09:49:50.047Z,25.00
2023-03-01T09:51:05.023Z,25.00
2023-03-01T09:51:49.656Z,25.00
2023-03-01T09:52:49.799Z,25.00
2023-03-01T09:53:49.605Z,25.00
2023-03-01T09:54:49.645Z,25.00
2023-03-01T09:55:49.586Z,25.00
2023-03-01T09:56:49.633Z,0.00
2023-03-01T09:58:49.797Z,0.00
2023-03-01T09:59:50.218Z,0.00
2023-03-01T10:00:50.036Z,0.00
2023-03-01T10:01:50.154Z,0.00
2023-03-01T10:02:50.582Z,0.00
2023-03-01T10:03:51.772Z,0.00
2023-03-01T10:04:50.127Z,0.00
2023-03-01T10:06:04.966Z,0.00
2023-03-01T10:06:49.624Z,0.00
2023-03-01T10:14:49.473Z,0.00
2023-03-01T10:15:49.570Z,0.00
2023-03-01T10:16:49.479Z,0.00
2023-03-01T10:17:49.497Z,0.00
2023-03-01T10:18:49.456Z,0.00
2023-03-01T10:19:49.459Z,0.00
2023-03-01T10:20:49.477Z,0.00
2023-03-01T10:25:49.453Z,0.00
2023-03-01T11:03:08.385Z,0.00
2023-03-01T11:15:08.407Z,149.83
2023-03-01T11:21:28.264Z,25.00
2023-03-01T11:22:27.903Z,25.00
2023-03-01T11:23:29.008Z,25.00
2023-03-01T11:25:48.010Z,25.00
2023-03-01T11:26:47.491Z,25.00
2023-03-01T11:27:47.474Z,25.00
2023-03-01T11:28:47.881Z,25.00
2023-03-01T11:29:49.026Z,25.00
2023-03-01T11:30:53.088Z,29.40
2023-03-01T11:31:57.285Z,26.32
2023-03-01T11:32:48.415Z,0.00
2023-03-01T11:33:47.327Z,14.37
2023-03-01T11:34:47.326Z,15.45
2023-03-01T11:39:06.886Z,25.00
2023-03-01T11:41:06.974Z,25.00
2023-03-01T11:42:18.068Z,70.50
2023-03-01T11:49:08.193Z,25.00
2023-03-01T11:50:07.638Z,25.00
2023-03-01T11:51:08.387Z,25.00
2023-03-01T11:53:07.106Z,25.00
2023-03-01T13:23:39.959Z,0.42
2023-03-01T13:33:39.924Z,20.34
2023-03-01T14:13:37.403Z,25.00
2023-03-01T14:22:35.278Z,0.00
2023-03-01T14:23:34.635Z,0.00
2023-03-01T14:24:34.688Z,0.00
2023-03-01T14:25:34.658Z,0.00
2023-03-01T14:26:34.614Z,0.00
2023-03-01T14:27:34.699Z,0.00
2023-03-01T14:28:34.667Z,0.00
2023-03-01T14:29:34.624Z,0.00
2023-03-01T14:30:34.624Z,0.00
2023-03-01T14:31:40.982Z,0.00
2023-03-01T14:52:34.694Z,179.82
2023-03-01T14:53:45.830Z,250.00
2023-03-01T14:54:35.669Z,250.37
2023-03-01T14:55:34.704Z,210.08
2023-03-01T14:56:34.665Z,200.12
2023-03-01T14:57:34.684Z,194.89
2023-03-01T14:58:34.855Z,194.90
2023-03-01T14:59:34.690Z,246.50
2023-03-01T15:07:34.584Z,174.67
2023-03-01T15:08:34.599Z,179.29
2023-03-01T15:09:34.810Z,81.49
2023-03-01T15:10:34.724Z,96.48
2023-03-01T15:11:35.191Z,49.56
2023-03-01T15:12:34.860Z,45.45
2023-03-01T15:13:34.839Z,38.14
2023-03-01T15:14:34.952Z,79.49
2023-03-01T16:01:54.563Z,149.65
2023-03-01T16:29:54.379Z,213.64
2023-03-01T16:30:54.407Z,214.06
2023-03-01T16:31:54.502Z,215.44
2023-03-01T16:32:54.513Z,229.16
2023-03-01T16:33:54.537Z,253.00
2023-03-01T16:34:54.546Z,241.70
2023-03-01T16:35:54.596Z,251.82
2023-03-01T17:48:13.947Z,25.00
2023-03-01T17:49:14.107Z,25.00
2023-03-01T17:50:13.907Z,25.00
2023-03-01T18:14:49.839Z,85.04
2023-03-01T19:01:13.145Z,25.00
2023-03-01T19:02:13.186Z,25.00
2023-03-01T19:03:12.931Z,25.00
2023-03-01T19:37:32.866Z,82.30
2023-03-01T19:38:32.875Z,83.15
2023-03-01T19:39:32.852Z,25.66
2023-03-01T19:40:32.832Z,32.97
2023-03-01T19:41:32.859Z,25.00
2023-03-01T19:42:32.849Z,33.83
2023-03-01T19:48:23.791Z,25.00
2023-03-01T19:49:23.594Z,25.00
2023-03-01T19:50:23.390Z,25.00
2023-03-01T20:02:57.432Z,25.00
2023-03-01T20:03:57.355Z,25.00
2023-03-01T20:09:57.107Z,25.00
2023-03-01T20:12:16.721Z,25.00
2023-03-01T20:13:16.668Z,25.00
2023-03-01T20:14:16.604Z,25.00
2023-03-01T20:15:16.580Z,25.00
2023-03-01T20:16:16.611Z,25.00
2023-03-01T20:17:16.565Z,0.00
2023-03-01T20:18:16.572Z,0.00
2023-03-01T20:19:16.543Z,0.00
2023-03-01T20:20:16.554Z,0.00
2023-03-01T20:21:24.794Z,0.00
2023-03-01T20:22:17.906Z,0.00
2023-03-01T20:23:16.548Z,0.00
2023-03-01T20:24:16.535Z,0.00
2023-03-01T20:25:16.566Z,0.00
2023-03-01T20:26:16.595Z,0.00
2023-03-01T20:27:16.507Z,0.00
2023-03-01T20:28:16.491Z,0.00
2023-03-01T20:29:16.485Z,46.11
2023-03-01T20:30:16.493Z,137.75
2023-03-01T20:31:16.518Z,171.26
2023-03-01T20:32:16.579Z,175.82
2023-03-01T20:33:16.476Z,163.65
2023-03-01T20:34:16.478Z,163.36
2023-03-01T20:35:16.433Z,157.07
2023-03-01T20:36:16.467Z,159.97
2023-03-01T20:37:16.446Z,165.30
2023-03-01T20:38:16.481Z,183.64
2023-03-01T20:39:16.581Z,209.20
2023-03-01T20:40:16.730Z,250.00
2023-03-01T20:41:16.602Z,237.01
2023-03-01T20:42:16.625Z,234.34
2023-03-01T20:43:16.602Z,189.99
2023-03-01T20:44:16.683Z,169.92
2023-03-01T20:45:16.641Z,144.03
2023-03-01T20:46:16.745Z,143.26
2023-03-01T20:47:16.732Z,132.50
2023-03-01T20:48:16.741Z,87.70
2023-03-01T20:49:16.803Z,92.96
2023-03-01T20:50:16.865Z,88.99
2023-03-01T20:51:16.882Z,103.86
2023-03-01T20:52:16.995Z,106.81
2023-03-01T20:53:17.018Z,129.71
2023-03-01T20:54:17.003Z,106.67
2023-03-01T20:55:17.077Z,25.00
2023-03-01T20:56:17.044Z,26.67
2023-03-01T20:57:17.066Z,31.65
2023-03-01T20:58:17.112Z,26.07
2023-03-01T20:59:17.129Z,33.66
2023-03-01T21:00:17.150Z,34.85
2023-03-01T21:01:17.240Z,22.07
2023-03-01T21:02:17.217Z,21.65
2023-03-01T21:03:17.240Z,23.48
2023-03-01T21:04:17.365Z,6.22
2023-03-01T21:05:17.246Z,25.00
2023-03-01T21:06:17.302Z,0.00
2023-03-01T21:07:17.262Z,7.70
2023-03-01T21:08:17.302Z,27.25
2023-03-01T21:09:17.327Z,33.37
2023-03-01T21:10:17.438Z,42.00
2023-03-01T21:11:17.510Z,52.03
2023-03-01T21:12:17.443Z,68.17
2023-03-01T21:13:17.384Z,75.02
2023-03-01T21:14:17.428Z,83.37
2023-03-01T21:15:28.330Z,91.41
2023-03-01T21:16:18.534Z,92.00
2023-03-01T21:17:17.417Z,95.39
2023-03-01T21:18:17.424Z,91.04
2023-03-01T21:19:17.438Z,76.33
2023-03-01T21:20:17.402Z,90.02
2023-03-01T21:21:17.402Z,107.09
2023-03-01T21:22:17.420Z,116.26
2023-03-01T21:23:17.379Z,123.19
2023-03-01T21:24:17.464Z,113.89
2023-03-01T21:25:17.414Z,109.65
2023-03-01T21:26:17.398Z,107.40
2023-03-01T21:27:17.404Z,113.63
2023-03-01T21:28:17.504Z,120.84
2023-03-01T21:29:17.556Z,130.08
2023-03-01T21:30:17.635Z,137.77
2023-03-01T21:31:17.715Z,151.03
2023-03-01T21:32:17.878Z,161.72
2023-03-01T21:33:17.777Z,175.22
2023-03-01T21:34:17.877Z,198.18
2023-03-01T21:35:17.958Z,192.98
2023-03-01T21:36:17.928Z,170.22
2023-03-01T21:37:17.930Z,177.14
2023-03-01T21:38:17.935Z,198.39
2023-03-01T21:39:18.022Z,228.95
2023-03-01T21:40:18.050Z,246.32
2023-03-01T21:41:18.033Z,146.91
2023-03-01T21:42:18.074Z,104.18
2023-03-01T21:43:18.112Z,101.52
2023-03-01T21:44:18.295Z,60.62
2023-03-01T21:45:18.179Z,54.93
2023-03-01T21:46:18.204Z,77.10
2023-03-01T21:47:18.284Z,92.49
2023-03-01T21:48:18.264Z,101.82
2023-03-01T21:49:18.318Z,106.90
2023-03-01T21:50:18.325Z,123.54
2023-03-01T21:51:18.424Z,90.08
2023-03-01T21:52:18.438Z,166.07
2023-03-01T21:53:18.470Z,205.59
2023-03-01T21:54:18.532Z,221.49
2023-03-01T21:55:18.613Z,222.88
2023-03-01T21:56:18.677Z,214.97
2023-03-01T21:57:18.639Z,216.98
2023-03-01T21:58:18.668Z,213.09
2023-03-01T21:59:18.766Z,228.91
2023-03-01T22:00:18.770Z,202.88
2023-03-01T22:01:18.919Z,178.41
2023-03-01T22:02:18.858Z,187.08
2023-03-01T22:03:18.918Z,201.27
2023-03-01T22:04:18.915Z,210.18
2023-03-01T22:05:18.979Z,215.74
2023-03-01T22:06:30.011Z,208.21
2023-03-01T22:07:20.033Z,207.58
2023-03-01T22:08:18.998Z,209.03
2023-03-01T22:09:19.048Z,203.54
2023-03-01T22:10:18.992Z,201.48
2023-03-01T22:11:19.009Z,195.10
2023-03-01T22:12:18.975Z,175.04
2023-03-01T22:14:39.015Z,25.00
2023-03-01T22:15:39.031Z,25.00
2023-03-01T22:16:38.859Z,25.00
2023-03-01T22:17:38.739Z,25.00
2023-03-01T22:18:38.813Z,25.00
2023-03-01T22:19:38.740Z,25.17
2023-03-01T22:20:38.764Z,35.11
2023-03-01T22:21:38.698Z,38.17
2023-03-01T22:23:59.146Z,25.00
2023-03-01T22:24:58.947Z,25.00
2023-03-01T22:25:59.150Z,25.00
2023-03-01T22:26:58.915Z,25.00
2023-03-01T22:27:58.875Z,25.00
2023-03-01T22:28:58.912Z,20.94
2023-03-01T22:29:58.841Z,40.23
2023-03-01T22:30:58.849Z,57.16
2023-03-01T22:31:58.959Z,67.11
2023-03-01T22:32:58.835Z,78.74
2023-03-01T22:33:58.830Z,84.10
2023-03-01T22:34:58.851Z,65.86
2023-03-01T22:35:58.889Z,55.65
2023-03-01T22:36:58.838Z,53.72
2023-03-01T22:37:58.809Z,6.16
2023-03-01T22:38:58.795Z,22.36
2023-03-01T22:39:58.753Z,30.57
2023-03-01T22:40:58.784Z,41.37
2023-03-01T22:41:58.764Z,60.54
2023-03-01T22:42:58.815Z,89.17
2023-03-01T22:43:58.787Z,117.03
2023-03-01T22:44:58.796Z,128.65
2023-03-01T22:45:58.770Z,135.24
2023-03-01T22:46:58.793Z,120.11
2023-03-01T22:47:58.734Z,120.08
2023-03-01T22:48:58.729Z,114.21
2023-03-01T22:49:58.732Z,112.61
2023-03-01T22:50:58.748Z,83.87
2023-03-01T22:52:00.371Z,35.95
2023-03-01T22:52:58.699Z,25.79
2023-03-01T22:53:58.766Z,25.99
2023-03-01T22:54:58.680Z,32.06
2023-03-01T22:55:58.709Z,25.60
2023-03-01T22:56:58.740Z,22.31
2023-03-01T22:57:58.818Z,0.00
2023-03-01T22:58:58.790Z,0.00
2023-03-01T22:59:58.825Z,0.00
2023-03-01T23:00:58.854Z,24.04
2023-03-01T23:01:58.892Z,17.02
2023-03-01T23:02:58.965Z,23.79
2023-03-01T23:03:58.982Z,25.00
2023-03-01T23:04:59.011Z,44.54
2023-03-01T23:05:59.006Z,52.37
2023-03-01T23:06:59.061Z,56.00
2023-03-01T23:07:59.034Z,86.85
2023-03-01T23:08:59.170Z,91.78
2023-03-01T23:09:59.152Z,110.91
2023-03-01T23:10:59.204Z,154.14
2023-03-01T23:11:59.257Z,276.69
2023-03-01T23:13:59.394Z,326.78
2023-03-01T23:39:16.948Z,210.92
